Time;durP1;ratioP1;P1;durP2;ratioP2;P2;SDS_P1;SDS_P2;PMS_P1;PMS_P2;Temp;Humidity;BMP_temperature;BMP_pressure;BME280_temperature;BME280_humidity;BME280_pressure;Samples;Min_cycle;Max_cycle;Signal;HPM_P1;HPM_P2
2022/03/17 00:00:15;;;;;;;10.85;2.70;;;7.50;76.20;;;;;;5039706;28;20018;-46
2022/03/17 00:02:41;;;;;;;13.48;2.92;;;7.50;76.30;;;;;;5039726;28;20033;-49
2022/03/17 00:05:09;;;;;;;14.60;3.35;;;7.40;76.40;;;;;;5039575;28;20053;-48
2022/03/17 00:07:39;;;;;;;9.00;2.38;;;7.40;76.30;;;;;;5039658;28;20037;-46
2022/03/17 00:10:16;;;;;;;13.38;3.63;;;7.30;76.20;;;;;;5039699;28;20033;-46
2022/03/17 00:12:44;;;;;;;9.65;2.50;;;7.30;76.20;;;;;;5039082;28;20044;-47
2022/03/17 00:15:10;;;;;;;9.05;2.53;;;7.30;76.50;;;;;;5039421;28;20021;-46
2022/03/17 00:17:36;;;;;;;10.02;2.60;;;7.30;76.50;;;;;;5039441;28;20025;-47
2022/03/17 00:20:02;;;;;;;12.07;2.65;;;7.30;75.90;;;;;;5039277;28;20097;-46
2022/03/17 00:22:28;;;;;;;9.55;2.42;;;7.30;75.70;;;;;;5039352;28;20033;-48
2022/03/17 00:24:54;;;;;;;10.88;3.10;;;7.20;76.20;;;;;;5038933;28;20065;-46
2022/03/17 00:27:21;;;;;;;10.23;2.47;;;7.20;76.30;;;;;;5039294;28;20021;-48
2022/03/17 00:29:50;;;;;;;9.13;2.33;;;7.20;76.70;;;;;;5039190;28;20494;-47
2022/03/17 00:32:16;;;;;;;10.60;2.55;;;7.20;76.30;;;;;;5037765;28;20038;-46
2022/03/17 00:37:26;;;;;;;9.15;2.47;;;7.10;75.60;;;;;;5038817;28;20163;-46
2022/03/17 00:39:53;;;;;;;10.27;3.22;;;7.10;76.80;;;;;;5038842;28;20056;-46
2022/03/17 00:42:20;;;;;;;9.18;2.15;;;7.10;76.50;;;;;;5037550;28;20045;-46
2022/03/17 00:44:47;;;;;;;6.80;2.05;;;7.00;76.70;;;;;;5038872;28;20081;-48
2022/03/17 00:47:13;;;;;;;10.48;2.60;;;7.00;76.90;;;;;;5038647;28;20029;-45
2022/03/17 00:49:39;;;;;;;11.73;2.80;;;7.00;76.50;;;;;;5038196;28;20026;-47
2022/03/17 00:52:10;;;;;;;10.70;2.30;;;7.00;76.30;;;;;;5038270;28;20026;-47
2022/03/17 00:54:37;;;;;;;10.10;2.60;;;7.00;76.50;;;;;;5038297;28;20026;-45
2022/03/17 00:57:02;;;;;;;8.48;2.53;;;7.00;76.40;;;;;;5038642;28;20022;-47
2022/03/17 00:59:28;;;;;;;11.13;2.28;;;7.00;76.30;;;;;;5038624;28;20013;-47
2022/03/17 01:01:54;;;;;;;9.27;2.20;;;7.00;75.50;;;;;;5038814;28;20060;-47
2022/03/17 01:04:20;;;;;;;13.80;3.13;;;7.00;75.10;;;;;;5038611;28;20030;-46
2022/03/17 01:06:45;;;;;;;7.55;2.17;;;6.90;76.60;;;;;;5038522;28;20033;-45
2022/03/17 01:09:11;;;;;;;11.73;3.30;;;6.90;76.50;;;;;;5038535;28;20029;-45
2022/03/17 01:11:37;;;;;;;8.63;2.40;;;6.90;75.50;;;;;;5038370;28;20892;-46
2022/03/17 01:14:03;;;;;;;11.75;2.65;;;6.80;75.70;;;;;;5038398;28;20389;-46
2022/03/17 01:16:28;;;;;;;8.88;2.58;;;6.80;76.40;;;;;;5038557;28;20412;-49
2022/03/17 01:18:54;;;;;;;8.40;2.40;;;6.80;76.30;;;;;;5038074;28;20025;-47
2022/03/17 01:21:20;;;;;;;11.70;2.75;;;6.80;76.30;;;;;;5038237;28;20390;-48
2022/03/17 01:23:45;;;;;;;10.50;2.30;;;6.70;76.30;;;;;;5038102;28;20092;-46
2022/03/17 01:26:11;;;;;;;8.57;2.20;;;6.70;76.30;;;;;;5037981;28;20112;-46
2022/03/17 01:28:38;;;;;;;12.68;2.20;;;6.70;76.10;;;;;;5038109;28;20405;-45
2022/03/17 01:31:04;;;;;;;9.68;2.20;;;6.80;76.90;;;;;;5037783;28;20029;-46
2022/03/17 01:33:30;;;;;;;9.90;2.40;;;6.70;76.90;;;;;;5037859;28;20069;-46
2022/03/17 01:35:56;;;;;;;10.35;2.08;;;6.70;76.60;;;;;;5038019;28;20026;-48
2022/03/17 01:38:21;;;;;;;6.93;2.08;;;6.70;76.70;;;;;;5038017;28;20489;-49
2022/03/17 01:40:47;;;;;;;9.65;2.15;;;6.70;76.90;;;;;;5037697;28;20108;-47
2022/03/17 01:43:13;;;;;;;9.18;2.47;;;6.70;77.30;;;;;;5037538;28;20025;-50
2022/03/17 01:45:39;;;;;;;10.88;2.10;;;6.70;77.50;;;;;;5037624;28;20473;-48
2022/03/17 01:48:05;;;;;;;10.95;2.65;;;6.70;78.00;;;;;;5037544;28;20026;-46
2022/03/17 01:50:31;;;;;;;8.18;2.20;;;6.70;77.30;;;;;;5037764;28;20037;-49
2022/03/17 01:52:57;;;;;;;11.10;2.50;;;6.70;77.50;;;;;;5037889;28;20473;-48
2022/03/17 01:55:22;;;;;;;7.63;1.95;;;6.70;77.40;;;;;;5037481;28;20091;-48
2022/03/17 01:57:48;;;;;;;8.50;2.00;;;6.70;77.70;;;;;;5037811;28;20025;-51
2022/03/17 02:00:18;;;;;;;9.35;2.60;;;6.70;76.70;;;;;;5037622;28;20031;-49
2022/03/17 02:02:49;;;;;;;10.63;2.42;;;6.70;77.00;;;;;;5037246;28;20463;-46
2022/03/17 02:05:16;;;;;;;6.85;2.10;;;6.70;78.20;;;;;;5037729;28;20108;-47
2022/03/17 02:07:45;;;;;;;8.27;1.90;;;6.70;77.70;;;;;;5037204;28;20451;-48
2022/03/17 02:10:11;;;;;;;10.05;2.03;;;6.70;76.90;;;;;;5037267;28;20048;-48
2022/03/17 02:15:21;;;;;;;10.27;1.80;;;6.60;77.60;;;;;;5037348;28;20032;-47
2022/03/17 02:17:48;;;;;;;7.63;1.88;;;6.60;77.20;;;;;;5037296;28;20037;-46
2022/03/17 02:20:15;;;;;;;10.02;2.25;;;6.70;77.50;;;;;;5037313;28;20022;-46
2022/03/17 02:22:44;;;;;;;9.48;2.75;;;6.70;77.30;;;;;;5037388;28;20057;-45
2022/03/17 02:27:54;;;;;;;7.78;2.22;;;6.60;77.10;;;;;;5037653;28;20390;-46
2022/03/17 02:30:22;;;;;;;7.78;2.00;;;6.60;77.30;;;;;;5037332;28;20042;-47
2022/03/17 02:32:48;;;;;;;8.68;2.38;;;6.60;76.90;;;;;;5037188;28;20032;-47
2022/03/17 02:35:19;;;;;;;9.43;2.22;;;6.60;77.10;;;;;;5037104;28;20029;-47
2022/03/17 02:37:46;;;;;;;5.00;1.83;;;6.60;77.40;;;;;;5037348;28;20143;-46
2022/03/17 02:40:12;;;;;;;8.52;1.95;;;6.60;77.70;;;;;;5037689;28;20033;-45
2022/03/17 02:42:38;;;;;;;5.85;1.73;;;6.60;77.40;;;;;;5037297;28;20029;-45
2022/03/17 02:45:06;;;;;;;10.10;1.90;;;6.60;77.00;;;;;;5037426;28;20037;-46
2022/03/17 02:47:32;;;;;;;8.18;2.13;;;6.60;77.00;;;;;;5036778;28;20024;-47
2022/03/17 02:49:59;;;;;;;6.57;1.77;;;6.60;76.50;;;;;;5036939;28;20468;-46
2022/03/17 02:52:26;;;;;;;9.10;1.80;;;6.60;77.90;;;;;;5037237;28;20057;-46
2022/03/17 02:54:53;;;;;;;7.93;2.08;;;6.50;76.40;;;;;;5037434;28;20018;-48
2022/03/17 02:57:19;;;;;;;8.18;1.88;;;6.50;77.30;;;;;;5040902;28;20088;-47
2022/03/17 02:59:46;;;;;;;8.10;1.95;;;6.50;77.40;;;;;;5040730;28;20032;-47
2022/03/17 03:02:13;;;;;;;7.72;1.95;;;6.50;77.10;;;;;;5040881;28;20021;-49
2022/03/17 03:04:39;;;;;;;7.18;1.77;;;6.50;76.80;;;;;;5040682;28;20500;-46
2022/03/17 03:07:06;;;;;;;9.43;2.38;;;6.40;77.00;;;;;;5040824;28;20022;-45
2022/03/17 03:09:32;;;;;;;8.02;1.98;;;6.40;77.00;;;;;;5040800;28;20091;-45
2022/03/17 03:11:59;;;;;;;4.75;1.70;;;6.40;77.20;;;;;;5040813;28;20037;-45
2022/03/17 03:14:25;;;;;;;8.48;1.77;;;6.40;77.40;;;;;;5040664;28;20022;-46
2022/03/17 03:16:51;;;;;;;7.72;1.80;;;6.40;77.10;;;;;;5040491;28;20068;-46
2022/03/17 03:19:17;;;;;;;9.93;1.95;;;6.40;77.70;;;;;;5040325;28;20026;-46
2022/03/17 03:21:46;;;;;;;6.30;1.63;;;6.30;78.10;;;;;;5040747;28;20120;-46
2022/03/17 03:24:13;;;;;;;7.65;1.88;;;6.30;78.00;;;;;;5040175;28;20055;-48
2022/03/17 03:26:43;;;;;;;7.70;1.67;;;6.30;77.60;;;;;;5040339;28;20508;-47
2022/03/17 03:31:39;;;;;;;5.43;1.40;;;6.30;77.70;;;;;;5040332;28;20034;-47
2022/03/17 03:34:04;;;;;;;6.82;1.88;;;6.20;77.60;;;;;;5040161;28;20032;-47
2022/03/17 03:39:15;;;;;;;5.53;1.60;;;6.10;77.10;;;;;;5040295;28;20080;-48
2022/03/17 03:41:40;;;;;;;8.93;1.80;;;6.00;77.50;;;;;;5040127;28;20025;-46
2022/03/17 03:44:06;;;;;;;8.52;1.90;;;6.00;77.00;;;;;;5040124;28;20026;-46
2022/03/17 03:46:32;;;;;;;3.65;1.48;;;6.00;77.60;;;;;;5039924;28;20104;-46
2022/03/17 03:48:57;;;;;;;7.35;1.80;;;6.00;77.40;;;;;;5039993;28;20033;-46
2022/03/17 03:51:23;;;;;;;4.18;1.42;;;6.00;77.70;;;;;;5040181;28;20029;-48
2022/03/17 03:56:33;;;;;;;8.52;2.03;;;5.90;77.90;;;;;;5039976;28;20452;-46
2022/03/17 03:59:03;;;;;;;6.22;2.00;;;5.80;78.20;;;;;;5039908;28;20017;-45
2022/03/17 04:01:32;;;;;;;7.65;1.92;;;5.80;78.50;;;;;;5039345;28;20052;-46
2022/03/17 04:03:58;;;;;;;5.65;1.63;;;5.80;78.10;;;;;;5038113;28;20022;-46
2022/03/17 04:06:24;;;;;;;5.63;2.03;;;5.80;77.80;;;;;;5039482;28;20106;-47
2022/03/17 04:08:50;;;;;;;4.95;1.38;;;5.70;78.20;;;;;;5039657;28;20454;-48
2022/03/17 04:11:16;;;;;;;6.70;2.28;;;5.70;77.90;;;;;;5039328;28;20104;-47
2022/03/17 04:13:41;;;;;;;6.22;2.15;;;5.70;77.70;;;;;;5039390;28;20025;-47
2022/03/17 04:16:07;;;;;;;7.60;1.80;;;5.70;78.00;;;;;;5039236;28;20037;-46
2022/03/17 04:18:33;;;;;;;6.57;1.63;;;5.70;77.70;;;;;;5039207;28;20025;-46
2022/03/17 04:20:59;;;;;;;5.95;2.00;;;5.70;77.70;;;;;;5039396;28;20025;-45
2022/03/17 04:23:24;;;;;;;4.28;1.58;;;5.70;77.60;;;;;;5039198;28;20048;-50
2022/03/17 04:25:50;;;;;;;6.95;2.03;;;5.60;77.70;;;;;;5039330;28;20037;-48
2022/03/17 04:28:16;;;;;;;3.55;1.95;;;5.60;77.80;;;;;;5039008;28;20487;-47
2022/03/17 04:30:42;;;;;;;5.18;1.70;;;5.50;77.60;;;;;;5038820;28;20025;-46
2022/03/17 04:33:07;;;;;;;8.40;1.80;;;5.50;77.10;;;;;;5038825;28;20033;-46
2022/03/17 04:35:33;;;;;;;4.03;1.60;;;5.40;78.50;;;;;;5039068;28;20131;-48
2022/03/17 04:37:59;;;;;;;7.43;1.73;;;5.50;77.30;;;;;;5038841;28;20543;-50
2022/03/17 04:40:25;;;;;;;6.15;1.75;;;5.40;77.70;;;;;;5039171;28;20068;-48
2022/03/17 04:42:50;;;;;;;5.97;1.73;;;5.30;78.30;;;;;;5038698;28;20170;-50
2022/03/17 04:45:16;;;;;;;5.28;1.40;;;5.30;78.20;;;;;;5038714;28;20068;-49
2022/03/17 04:47:42;;;;;;;11.82;2.15;;;5.20;79.70;;;;;;5038644;28;20492;-47
2022/03/17 04:50:08;;;;;;;7.35;2.08;;;5.30;79.40;;;;;;5038896;28;20096;-47
2022/03/17 04:55:23;;;;;;;8.07;1.90;;;5.30;78.30;;;;;;5046843;28;20034;-48
2022/03/17 04:57:50;;;;;;;8.40;1.75;;;5.30;78.20;;;;;;5038682;28;20027;-47
2022/03/17 05:00:16;;;;;;;4.65;1.25;;;5.30;78.50;;;;;;5038530;28;20026;-46
2022/03/17 05:02:41;;;;;;;6.22;1.45;;;5.30;78.30;;;;;;5038344;28;20022;-47
2022/03/17 05:05:07;;;;;;;6.32;1.38;;;5.20;78.40;;;;;;5038143;28;20033;-48
2022/03/17 05:07:34;;;;;;;4.78;1.40;;;5.20;78.40;;;;;;5038258;28;20108;-45
2022/03/17 05:10:00;;;;;;;6.28;1.50;;;5.20;78.10;;;;;;5038063;28;20041;-46
2022/03/17 05:12:25;;;;;;;9.45;2.42;;;5.20;77.40;;;;;;5038174;28;20029;-47
2022/03/17 05:14:51;;;;;;;7.32;1.63;;;5.10;77.70;;;;;;5038196;28;20021;-47
2022/03/17 05:17:17;;;;;;;3.08;1.17;;;5.10;77.60;;;;;;5038248;28;20568;-46
2022/03/17 05:19:43;;;;;;;4.85;1.48;;;5.10;77.00;;;;;;5037888;28;20021;-46
2022/03/17 05:22:08;;;;;;;4.55;1.70;;;5.00;77.10;;;;;;5038264;28;20049;-45
2022/03/17 05:24:34;;;;;;;5.78;1.75;;;5.00;76.80;;;;;;5037877;28;20095;-46
2022/03/17 05:27:00;;;;;;;4.18;1.40;;;4.90;77.00;;;;;;5038209;28;20374;-45
2022/03/17 05:29:25;;;;;;;3.63;1.15;;;4.90;77.50;;;;;;5038437;28;20108;-45
2022/03/17 05:31:51;;;;;;;5.55;1.45;;;4.90;76.30;;;;;;5037762;28;20036;-47
2022/03/17 05:34:17;;;;;;;6.80;1.80;;;4.80;76.10;;;;;;5037925;28;20067;-46
2022/03/17 05:36:43;;;;;;;9.18;1.55;;;4.70;75.50;;;;;;5037878;28;20033;-46
2022/03/17 05:39:08;;;;;;;4.43;1.42;;;4.60;75.80;;;;;;5038146;28;20025;-45
2022/03/17 05:41:34;;;;;;;3.97;1.33;;;4.60;76.10;;;;;;5038160;28;20022;-48
2022/03/17 05:44:00;;;;;;;3.92;1.48;;;4.50;76.50;;;;;;5037865;28;20063;-46
2022/03/17 05:46:26;;;;;;;5.40;1.25;;;4.40;76.40;;;;;;5037947;28;20021;-47
2022/03/17 05:48:53;;;;;;;3.60;1.23;;;4.40;76.80;;;;;;5037587;28;20121;-47
2022/03/17 05:51:18;;;;;;;4.43;1.25;;;4.40;76.70;;;;;;5037794;28;20106;-46
2022/03/17 05:53:44;;;;;;;2.95;1.00;;;4.40;76.70;;;;;;5037803;28;20029;-46
2022/03/17 05:56:10;;;;;;;5.82;1.38;;;4.40;76.80;;;;;;5037397;28;20031;-46
2022/03/17 05:58:36;;;;;;;4.75;1.40;;;4.30;76.50;;;;;;5037729;28;20026;-49
2022/03/17 06:01:02;;;;;;;5.68;1.30;;;4.30;77.10;;;;;;5037157;28;20029;-47
2022/03/17 06:03:28;;;;;;;5.68;1.30;;;4.30;77.20;;;;;;5037364;28;20033;-48
2022/03/17 06:05:54;;;;;;;4.00;1.20;;;4.40;77.50;;;;;;5037739;28;20022;-47
2022/03/17 06:08:19;;;;;;;3.10;1.40;;;4.40;77.50;;;;;;5037412;28;20030;-49
2022/03/17 06:10:45;;;;;;;2.95;1.13;;;4.40;77.30;;;;;;5037433;28;20432;-46
2022/03/17 06:13:11;;;;;;;4.38;1.40;;;4.40;77.00;;;;;;5037451;28;20473;-46
2022/03/17 06:15:37;;;;;;;4.18;1.40;;;4.40;77.30;;;;;;5037259;28;20028;-48
2022/03/17 06:18:05;;;;;;;3.90;1.50;;;4.30;77.00;;;;;;5037494;28;20425;-46
2022/03/17 06:20:33;;;;;;;4.82;1.38;;;4.30;77.30;;;;;;5037225;28;20018;-47
2022/03/17 06:23:01;;;;;;;6.38;2.08;;;4.30;76.90;;;;;;5036892;28;20401;-47
2022/03/17 06:25:29;;;;;;;27.30;13.77;;;4.30;77.40;;;;;;5036821;28;20462;-47
2022/03/17 06:27:55;;;;;;;18.73;8.55;;;4.30;77.70;;;;;;5037302;28;20021;-50
2022/03/17 06:30:26;;;;;;;11.63;5.63;;;4.40;77.60;;;;;;5038456;28;20033;-47
2022/03/17 06:32:52;;;;;;;10.70;4.38;;;4.40;76.80;;;;;;5041024;28;20029;-50
2022/03/17 06:35:20;;;;;;;5.30;2.10;;;4.30;77.10;;;;;;5041349;28;20033;-51
2022/03/17 06:37:51;;;;;;;8.52;2.47;;;4.30;76.10;;;;;;5039797;28;20049;-48
2022/03/17 06:40:18;;;;;;;9.63;3.75;;;4.30;76.20;;;;;;5041124;28;20037;-48
2022/03/17 06:42:46;;;;;;;7.50;3.42;;;4.30;76.50;;;;;;5041369;28;20030;-48
2022/03/17 06:45:12;;;;;;;6.10;1.98;;;4.20;76.10;;;;;;5040901;28;20075;-47
2022/03/17 06:47:39;;;;;;;8.70;2.30;;;4.20;76.70;;;;;;5040950;28;20029;-49
2022/03/17 06:50:07;;;;;;;5.32;2.08;;;4.20;76.70;;;;;;5041048;28;20113;-49
2022/03/17 06:52:33;;;;;;;2.53;1.20;;;4.20;77.10;;;;;;5040760;28;20022;-48
2022/03/17 06:54:58;;;;;;;4.30;1.63;;;4.20;76.50;;;;;;5040652;28;20116;-46
2022/03/17 06:57:24;;;;;;;3.42;1.20;;;4.20;76.80;;;;;;5040787;28;20045;-48
2022/03/17 06:59:51;;;;;;;3.58;1.35;;;4.20;78.00;;;;;;5040677;28;20026;-47
2022/03/17 07:02:18;;;;;;;3.13;1.38;;;4.20;77.60;;;;;;5041175;28;20027;-49
2022/03/17 07:04:44;;;;;;;4.80;1.50;;;4.20;78.70;;;;;;5040864;28;20034;-47
2022/03/17 07:07:10;;;;;;;5.70;1.60;;;4.20;77.40;;;;;;5040532;28;20028;-47
2022/03/17 07:09:37;;;;;;;3.55;1.70;;;4.20;78.40;;;;;;5040531;28;20026;-47
2022/03/17 07:12:03;;;;;;;5.00;1.60;;;4.30;77.10;;;;;;5040374;28;20021;-47
2022/03/17 07:14:29;;;;;;;6.53;2.15;;;4.30;78.40;;;;;;5040178;28;20501;-47
2022/03/17 07:16:55;;;;;;;6.63;1.83;;;4.30;77.50;;;;;;5040924;28;20048;-47
2022/03/17 07:19:21;;;;;;;5.97;1.75;;;4.40;79.60;;;;;;5040433;28;20108;-49
2022/03/17 07:21:47;;;;;;;6.70;1.83;;;4.40;80.30;;;;;;5040306;28;20064;-48
2022/03/17 07:24:13;;;;;;;6.70;2.05;;;4.50;78.60;;;;;;5039441;28;20383;-47
2022/03/17 07:26:41;;;;;;;8.27;2.42;;;4.60;79.50;;;;;;5038885;28;20488;-46
2022/03/17 07:29:08;;;;;;;7.43;2.35;;;4.60;81.10;;;;;;5039219;28;20032;-52
2022/03/17 07:31:34;;;;;;;5.65;1.90;;;4.70;83.00;;;;;;5038830;28;20033;-50
2022/03/17 07:34:00;;;;;;;7.93;2.28;;;4.80;84.30;;;;;;5039269;28;20445;-47
2022/03/17 07:36:28;;;;;;;6.93;2.30;;;4.90;83.80;;;;;;5038773;28;20482;-46
2022/03/17 07:38:55;;;;;;;6.43;2.15;;;5.00;82.20;;;;;;5038838;28;20104;-45
2022/03/17 07:41:21;;;;;;;9.57;2.72;;;5.10;83.90;;;;;;5038509;28;20017;-46
2022/03/17 07:43:47;;;;;;;6.95;2.30;;;5.20;84.30;;;;;;5038713;28;20072;-46
2022/03/17 07:46:13;;;;;;;9.23;2.38;;;5.30;84.20;;;;;;5038599;28;20022;-48
2022/03/17 07:48:41;;;;;;;6.28;2.17;;;5.30;84.30;;;;;;5038798;28;20037;-46
2022/03/17 07:51:08;;;;;;;9.40;2.70;;;5.40;85.40;;;;;;5038556;28;20053;-48
2022/03/17 07:53:34;;;;;;;11.07;2.33;;;5.50;83.80;;;;;;5038404;28;20059;-48
2022/03/17 07:56:02;;;;;;;10.30;2.45;;;5.60;84.90;;;;;;5038784;28;20022;-52
2022/03/17 07:58:28;;;;;;;8.45;2.38;;;5.70;85.30;;;;;;5038534;28;20512;-47
2022/03/17 08:00:57;;;;;;;7.90;2.05;;;5.80;83.20;;;;;;5038350;28;20072;-47
2022/03/17 08:03:23;;;;;;;7.53;2.63;;;5.80;85.40;;;;;;5038218;28;20035;-46
2022/03/17 08:05:49;;;;;;;6.18;2.60;;;5.90;85.80;;;;;;5038427;28;20104;-50
2022/03/17 08:08:18;;;;;;;16.77;5.60;;;6.00;85.00;;;;;;5038191;28;20029;-46
2022/03/17 08:10:44;;;;;;;16.85;5.35;;;6.10;85.70;;;;;;5038461;28;20458;-47
2022/03/17 08:13:10;;;;;;;16.85;5.45;;;6.20;85.60;;;;;;5038288;28;20057;-46
2022/03/17 08:15:37;;;;;;;12.57;4.28;;;6.30;84.20;;;;;;5038874;28;20464;-50
2022/03/17 08:18:07;;;;;;;15.07;6.55;;;6.40;84.30;;;;;;5038403;28;20441;-47
2022/03/17 08:20:38;;;;;;;12.82;3.70;;;6.50;85.60;;;;;;5038159;28;20087;-51
2022/03/17 08:23:04;;;;;;;11.90;2.83;;;6.70;85.20;;;;;;4989231;28;1402046;-49
2022/03/17 08:25:30;;;;;;;9.05;3.33;;;6.80;84.40;;;;;;5039431;28;20033;-48
2022/03/17 08:27:56;;;;;;;7.03;2.42;;;7.00;84.90;;;;;;5039014;28;20032;-47
2022/03/17 08:30:22;;;;;;;9.88;2.85;;;7.10;84.80;;;;;;5038781;28;20025;-49
2022/03/17 08:32:49;;;;;;;10.77;2.33;;;7.30;83.80;;;;;;5038535;28;20056;-46
2022/03/17 08:35:15;;;;;;;8.93;2.70;;;7.60;83.90;;;;;;5038849;28;20024;-51
2022/03/17 08:37:48;;;;;;;6.63;2.20;;;7.80;83.70;;;;;;5038738;28;20029;-48
2022/03/17 08:40:14;;;;;;;9.80;2.40;;;8.00;82.80;;;;;;5038992;28;20109;-46
2022/03/17 08:42:41;;;;;;;10.77;2.40;;;8.30;82.10;;;;;;5038736;28;20029;-50
2022/03/17 08:50:39;;;;;;;7.97;2.17;;;9.30;80.70;;;;;;5038854;28;20056;-48
2022/03/17 08:53:05;;;;;;;11.07;3.20;;;9.70;82.00;;;;;;5038055;28;20056;-46
2022/03/17 08:55:31;;;;;;;14.25;4.30;;;10.30;81.30;;;;;;5039086;28;20474;-47
2022/03/17 08:57:57;;;;;;;15.85;7.45;;;10.80;78.40;;;;;;5039091;28;20115;-46
2022/03/17 09:00:24;;;;;;;32.85;19.70;;;11.30;77.60;;;;;;5038606;28;20394;-47
2022/03/17 09:02:50;;;;;;;42.05;27.27;;;11.60;72.90;;;;;;5038904;28;20032;-46
2022/03/17 09:05:16;;;;;;;40.33;26.00;;;11.90;70.10;;;;;;5038565;28;20564;-47
2022/03/17 09:07:42;;;;;;;41.95;25.50;;;12.10;69.70;;;;;;5038847;28;20119;-46
2022/03/17 09:10:08;;;;;;;39.60;22.80;;;12.40;68.90;;;;;;5038702;28;20033;-48
2022/03/17 09:12:35;;;;;;;28.52;16.15;;;12.90;69.90;;;;;;5038474;28;20034;-46
2022/03/17 09:15:01;;;;;;;30.67;17.17;;;13.30;69.00;;;;;;5038317;28;20025;-49
2022/03/17 09:17:27;;;;;;;21.40;12.07;;;13.70;68.90;;;;;;5038665;28;20029;-51
2022/03/17 09:19:53;;;;;;;21.88;10.40;;;14.10;69.80;;;;;;5038615;28;20020;-47
2022/03/17 09:22:18;;;;;;;24.40;10.85;;;14.60;67.70;;;;;;5038753;28;20385;-46
2022/03/17 09:24:48;;;;;;;15.93;5.45;;;15.20;67.80;;;;;;5038183;28;20041;-46
2022/03/17 09:27:15;;;;;;;10.60;2.92;;;15.60;64.00;;;;;;5038238;28;20037;-47
2022/03/17 09:29:41;;;;;;;10.45;2.55;;;16.00;66.00;;;;;;5038416;28;20022;-48
2022/03/17 09:32:09;;;;;;;10.93;2.58;;;16.40;66.80;;;;;;5038108;28;20483;-50
2022/03/17 09:34:36;;;;;;;10.50;2.78;;;16.90;65.20;;;;;;5038431;28;20018;-49
2022/03/17 09:37:02;;;;;;;12.73;2.95;;;17.10;64.40;;;;;;5038344;28;20108;-49
2022/03/17 09:42:26;;;;;;;8.52;3.15;;;17.70;60.70;;;;;;5047494;28;20132;-50
2022/03/17 09:44:55;;;;;;;12.55;3.40;;;18.10;63.80;;;;;;5037426;28;20078;-47
2022/03/17 09:47:24;;;;;;;8.43;3.28;;;18.60;61.40;;;;;;5037523;28;20033;-50
2022/03/17 09:49:54;;;;;;;11.45;2.90;;;19.10;62.40;;;;;;5037703;28;20022;-47
2022/03/17 09:52:21;;;;;;;12.27;4.32;;;19.50;62.20;;;;;;5037767;28;20059;-47
2022/03/17 09:54:48;;;;;;;10.13;3.72;;;19.70;61.20;;;;;;5038397;28;20032;-49
2022/03/17 09:57:17;;;;;;;7.38;2.65;;;19.70;55.90;;;;;;5038062;28;20030;-51
2022/03/17 09:59:57;;;;;;;7.15;1.90;;;19.80;57.10;;;;;;5037792;28;20017;-48
2022/03/17 10:02:24;;;;;;;10.35;2.25;;;19.90;55.50;;;;;;5037612;28;20057;-46
2022/03/17 10:04:51;;;;;;;7.78;1.65;;;20.10;58.40;;;;;;5037593;28;20490;-48
2022/03/17 10:07:18;;;;;;;6.30;1.77;;;20.40;60.50;;;;;;5037543;28;20034;-48
2022/03/17 10:09:45;;;;;;;7.70;2.08;;;20.50;55.50;;;;;;5037912;28;20099;-48
2022/03/17 10:12:13;;;;;;;8.88;1.63;;;20.90;54.50;;;;;;5037512;28;20025;-46
2022/03/17 10:14:41;;;;;;;6.93;1.65;;;21.10;50.80;;;;;;5037598;28;20049;-48
2022/03/17 10:17:31;;;;;;;8.63;1.67;;;21.30;56.30;;;;;;5037623;28;20049;-47
2022/03/17 10:20:15;;;;;;;9.25;1.70;;;21.40;50.30;;;;;;5037428;28;20050;-47
2022/03/17 10:22:46;;;;;;;5.10;1.70;;;21.70;45.70;;;;;;5037556;28;20485;-50
2022/03/17 10:25:20;;;;;;;8.65;3.83;;;21.90;51.00;;;;;;5037743;28;20120;-49
2022/03/17 10:27:49;;;;;;;9.48;3.13;;;22.10;50.70;;;;;;5037690;28;20444;-50
2022/03/17 10:30:23;;;;;;;8.77;1.90;;;22.40;47.80;;;;;;5037733;28;20033;-48
2022/03/17 10:33:00;;;;;;;;;;;22.90;50.80;;;;;;5037649;28;20033;-48
2022/03/17 10:35:34;;;;;;;6.53;1.70;;;23.20;51.10;;;;;;5037274;28;20288;-48
2022/03/17 10:38:10;;;;;;;5.35;1.73;;;23.40;48.50;;;;;;5037651;28;20021;-48
2022/03/17 10:40:37;;;;;;;5.80;1.63;;;23.60;52.30;;;;;;5037605;28;20065;-47
2022/03/17 10:43:24;;;;;;;5.75;1.70;;;23.70;50.70;;;;;;5037182;28;20034;-51
2022/03/17 10:46:11;;;;;;;7.20;1.77;;;24.10;51.70;;;;;;5037581;28;20026;-50
2022/03/17 10:48:54;;;;;;;7.80;1.95;;;24.40;50.70;;;;;;5037272;28;20057;-50
2022/03/17 10:51:40;;;;;;;6.85;1.77;;;24.70;44.30;;;;;;5037416;28;20038;-47
2022/03/17 10:54:20;;;;;;;7.05;1.98;;;24.90;47.10;;;;;;5037548;28;20028;-51
2022/03/17 10:57:05;;;;;;;6.57;2.20;;;24.90;44.20;;;;;;5037465;28;20398;-49
2022/03/17 10:59:43;;;;;;;6.53;2.05;;;24.90;41.40;;;;;;5037247;28;20014;-47
2022/03/17 11:02:11;;;;;;;7.00;2.42;;;24.90;43.80;;;;;;5037188;28;20108;-46
2022/03/17 11:04:40;;;;;;;5.55;2.00;;;25.00;45.30;;;;;;5037642;28;20026;-51
2022/03/17 11:07:10;;;;;;;7.55;2.25;;;25.40;44.10;;;;;;5037417;28;20064;-51
2022/03/17 11:09:38;;;;;;;6.60;1.90;;;25.80;38.70;;;;;;5037140;28;20021;-52
2022/03/17 11:12:18;;;;;;;5.00;1.58;;;25.90;37.60;;;;;;5037279;28;20038;-50
2022/03/17 11:14:46;;;;;;;6.30;1.95;;;25.90;40.60;;;;;;5037256;28;20014;-48
2022/03/17 11:17:16;;;;;;;4.85;1.70;;;25.90;41.10;;;;;;5038180;28;20025;-48
2022/03/17 11:19:43;;;;;;;6.30;2.05;;;26.10;41.70;;;;;;5040483;28;20033;-49
2022/03/17 11:22:15;;;;;;;6.00;1.80;;;26.20;40.70;;;;;;5040762;28;20029;-49
2022/03/17 11:24:41;;;;;;;6.95;1.67;;;26.20;37.70;;;;;;5040318;28;20049;-51
2022/03/17 11:27:13;;;;;;;4.93;1.70;;;26.60;41.00;;;;;;5040647;28;20104;-50
2022/03/17 11:29:47;;;;;;;5.70;1.55;;;26.60;38.60;;;;;;5040702;28;20029;-52
2022/03/17 11:32:29;;;;;;;4.72;1.38;;;26.80;36.80;;;;;;5040264;28;20033;-48
2022/03/17 11:35:07;;;;;;;4.00;1.17;;;26.80;40.00;;;;;;5040893;28;20022;-52
2022/03/17 11:37:33;;;;;;;7.78;2.45;;;27.30;35.70;;;;;;5040640;28;20021;-50
2022/03/17 11:40:14;;;;;;;6.63;1.50;;;27.50;41.50;;;;;;5040319;28;20075;-50
2022/03/17 11:42:41;;;;;;;6.15;2.28;;;27.70;40.50;;;;;;5040494;28;20029;-47
2022/03/17 11:45:14;;;;;;;21.77;19.58;;;27.70;40.40;;;;;;5040062;28;20449;-47
2022/03/17 11:47:46;;;;;;;5.70;1.80;;;27.80;37.60;;;;;;5040006;28;20091;-48
2022/03/17 11:50:25;;;;;;;6.53;1.90;;;27.70;36.50;;;;;;5040322;28;20049;-50
2022/03/17 11:52:56;;;;;;;4.03;1.52;;;27.80;37.60;;;;;;5040455;28;20032;-49
2022/03/17 11:55:37;;;;;;;7.00;1.77;;;27.50;34.20;;;;;;5040049;28;20025;-50
2022/03/17 11:58:26;;;;;;;5.05;1.50;;;27.60;36.60;;;;;;5040074;28;20028;-47
2022/03/17 12:00:53;;;;;;;5.30;1.40;;;28.00;35.30;;;;;;5039925;28;20033;-51
2022/03/17 12:03:28;;;;;;;4.07;1.20;;;28.20;34.80;;;;;;5039839;28;20477;-50
2022/03/17 12:06:14;;;;;;;4.25;1.30;;;28.20;31.60;;;;;;5039853;28;20033;-49
2022/03/17 12:08:41;;;;;;;5.40;1.85;;;28.30;36.60;;;;;;5039884;28;20045;-47
2022/03/17 12:11:15;;;;;;;5.45;1.20;;;28.40;36.30;;;;;;5039626;28;20029;-51
2022/03/17 12:13:41;;;;;;;;;;;28.40;33.00;;;;;;5040509;28;20022;-49
2022/03/17 12:16:08;;;;;;;3.63;1.30;;;28.40;32.30;;;;;;5039777;28;20292;-46
2022/03/17 12:19:02;;;;;;;3.83;1.23;;;28.30;31.80;;;;;;5039863;28;20028;-48
2022/03/17 12:22:03;;;;;;;4.15;1.33;;;28.50;35.70;;;;;;5039794;28;20096;-47
2022/03/17 12:24:33;;;;;;;2.50;1.02;;;28.30;33.60;;;;;;5039235;28;20127;-46
2022/03/17 12:27:30;;;;;;;6.43;1.73;;;28.00;35.00;;;;;;5039253;28;20030;-49
2022/03/17 12:29:59;;;;;;;5.50;1.20;;;28.20;36.40;;;;;;5039734;28;20021;-46
2022/03/17 12:32:31;;;;;;;4.15;1.35;;;28.20;31.80;;;;;;5039280;28;20025;-50
2022/03/17 12:34:59;;;;;;;5.70;1.40;;;28.50;32.40;;;;;;5039327;28;20104;-49
2022/03/17 12:37:30;;;;;;;6.97;1.20;;;29.20;33.40;;;;;;5039215;28;20027;-46
2022/03/17 12:39:59;;;;;;;4.03;1.15;;;29.40;33.80;;;;;;5039732;28;20018;-48
2022/03/17 12:42:28;;;;;;;3.72;1.40;;;29.10;31.30;;;;;;5039198;28;20033;-49
2022/03/17 12:45:11;;;;;;;6.10;1.48;;;29.00;32.50;;;;;;5039246;28;20025;-49
2022/03/17 12:47:39;;;;;;;7.07;1.80;;;28.60;30.10;;;;;;5039052;28;20036;-46
2022/03/17 12:50:14;;;;;;;5.40;1.73;;;28.40;30.70;;;;;;5039012;28;20492;-48
2022/03/17 12:52:42;;;;;;;2.47;1.17;;;28.70;31.60;;;;;;5038740;28;20048;-46
2022/03/17 12:55:10;;;;;;;5.13;1.60;;;28.80;32.30;;;;;;5038824;28;20083;-49
2022/03/17 12:57:39;;;;;;;4.13;1.40;;;29.00;32.00;;;;;;5038743;28;20021;-47
2022/03/17 13:00:07;;;;;;;4.90;1.58;;;29.10;33.80;;;;;;5038508;28;20473;-52
2022/03/17 13:02:33;;;;;;;3.80;1.38;;;29.30;30.70;;;;;;5038832;28;20029;-50
2022/03/17 13:06:53;;;;;;;4.00;1.38;;;29.50;31.40;;;;;;5038574;28;20079;-48
2022/03/17 13:07:49;;;;;;;4.30;1.27;;;29.40;31.40;;;;;;5038145;28;20113;-47
2022/03/17 13:10:25;;;;;;;4.93;1.50;;;29.20;32.20;;;;;;5038272;28;20037;-52
2022/03/17 13:15:56;;;;;;;5.45;1.08;;;28.90;31.30;;;;;;5055952;28;20591;-46
2022/03/17 13:18:23;;;;;;;2.47;1.15;;;29.10;32.10;;;;;;5056193;28;20068;-50
2022/03/17 13:20:52;;;;;;;3.80;1.15;;;29.00;32.40;;;;;;5047264;28;20037;-46
2022/03/17 13:23:18;;;;;;;7.45;1.35;;;28.90;28.60;;;;;;5038145;28;20125;-46
2022/03/17 13:25:44;;;;;;;3.70;0.90;;;29.10;31.40;;;;;;5038356;28;20118;-48